Time;durP1;ratioP1;P1;durP2;ratioP2;P2;SDS_P1;SDS_P2;PMS_P1;PMS_P2;Temp;Humidity;BMP_temperature;BMP_pressure;BME280_temperature;BME280_humidity;BME280_pressure;Samples;Min_cycle;Max_cycle;Signal;HPM_P1;HPM_P2
2023/05/31 00:02:07;;;;;;;7.47;4.30;;;;;;;12.20;77.81;102424.63;5083223;28;20044;-73
2023/05/31 00:04:52;;;;;;;5.50;4.15;;;;;;;12.16;78.05;102433.47;5084097;28;20049;-73
2023/05/31 00:07:38;;;;;;;5.28;4.45;;;;;;;12.10;78.29;102425.63;5078985;28;20135;-74
2023/05/31 00:10:23;;;;;;;5.45;4.30;;;;;;;12.06;78.34;102423.91;5066981;28;20060;-73
2023/05/31 00:13:08;;;;;;;5.97;4.30;;;;;;;12.02;78.41;102431.00;5082142;28;20084;-73
2023/05/31 00:15:54;;;;;;;7.20;4.30;;;;;;;12.00;78.90;102424.84;5084605;28;20102;-76
2023/05/31 00:18:40;;;;;;;6.13;4.32;;;;;;;11.95;78.70;102422.22;5087417;28;20060;-76
2023/05/31 00:21:25;;;;;;;5.22;4.28;;;;;;;11.93;79.14;102429.28;5086197;28;20825;-75
2023/05/31 00:24:12;;;;;;;5.78;4.72;;;;;;;11.91;79.44;102435.50;5079356;28;20107;-74
2023/05/31 00:26:57;;;;;;;7.43;5.00;;;;;;;11.86;79.46;102430.25;5085153;28;20062;-75
2023/05/31 00:29:43;;;;;;;5.32;4.38;;;;;;;11.85;79.66;102428.50;5068602;28;20049;-74
2023/05/31 00:32:28;;;;;;;6.35;4.82;;;;;;;11.81;80.18;102421.47;5086710;28;20068;-74
2023/05/31 00:35:13;;;;;;;6.03;4.80;;;;;;;11.77;80.33;102430.34;5066308;28;20892;-74
2023/05/31 00:38:06;;;;;;;7.00;5.20;;;;;;;11.74;80.70;102431.25;5066298;28;20040;-74
2023/05/31 00:40:51;;;;;;;6.05;4.72;;;;;;;11.71;80.83;102420.72;5085883;28;20048;-74
2023/05/31 00:43:36;;;;;;;7.18;5.00;;;;;;;11.71;81.10;102425.09;5072320;28;20092;-74
2023/05/31 00:46:31;;;;;;;6.65;5.20;;;;;;;11.67;81.24;102424.25;5081912;28;20095;-73
2023/05/31 00:49:17;;;;;;;7.68;5.03;;;;;;;11.65;81.30;102428.69;5058465;28;20124;-77
2023/05/31 00:52:04;;;;;;;6.43;4.95;;;;;;;11.64;81.77;102430.47;5087667;28;20048;-77
2023/05/31 00:54:50;;;;;;;7.38;5.20;;;;;;;11.59;81.66;102429.66;5088339;28;20053;-79
2023/05/31 00:57:37;;;;;;;6.65;5.00;;;;;;;11.54;82.10;102430.56;5081066;28;20068;-76
2023/05/31 01:00:23;;;;;;;7.22;5.45;;;;;;;11.52;82.27;102443.78;5087675;28;20083;-74
2023/05/31 01:03:08;;;;;;;6.05;4.75;;;;;;;11.48;82.61;102439.44;5069661;28;20052;-74
2023/05/31 01:05:55;;;;;;;6.28;5.20;;;;;;;11.44;82.59;102441.22;5086948;28;20087;-75
2023/05/31 01:08:40;;;;;;;6.53;5.55;;;;;;;11.41;82.73;102446.50;5084036;28;20061;-75
2023/05/31 01:12:06;;;;;;;9.57;5.68;;;;;;;11.40;83.39;102447.41;5087122;28;20048;-75
2023/05/31 01:15:18;;;;;;;6.95;5.25;;;;;;;11.39;83.42;102445.66;5074269;28;20077;-75
2023/05/31 01:18:37;;;;;;;6.65;5.43;;;;;;;11.36;83.53;102445.66;5084457;28;20049;-72
2023/05/31 01:21:37;;;;;;;7.72;5.60;;;;;;;11.32;84.04;102443.94;5071153;28;20048;-72
2023/05/31 01:24:41;;;;;;;8.65;5.55;;;;;;;11.33;83.86;102445.72;5082597;28;20114;-72
2023/05/31 01:27:28;;;;;;;6.03;5.38;;;;;;;11.30;84.06;102436.03;5054536;28;20052;-72
2023/05/31 01:30:16;;;;;;;6.47;5.30;;;;;;;11.32;84.40;102441.31;5073684;28;20175;-72
2023/05/31 01:33:11;;;;;;;8.00;5.97;;;;;;;11.34;84.33;102443.03;5069864;28;20099;-72
2023/05/31 01:35:56;;;;;;;6.78;5.68;;;;;;;11.30;84.41;102440.44;5070506;28;20136;-73
2023/05/31 01:38:41;;;;;;;6.10;5.40;;;;;;;11.29;84.84;102430.75;5086246;28;20048;-74
2023/05/31 01:41:28;;;;;;;8.82;6.10;;;;;;;11.25;84.90;102429.03;5078780;28;20049;-74
2023/05/31 01:44:18;;;;;;;7.40;5.82;;;;;;;11.22;84.87;102432.56;5072248;28;20052;-72
2023/05/31 01:47:05;;;;;;;7.57;5.70;;;;;;;11.16;85.44;102433.50;5075649;28;20056;-71
2023/05/31 01:49:52;;;;;;;6.82;6.00;;;;;;;11.15;85.48;102441.44;5071528;28;20508;-71
2023/05/31 01:52:37;;;;;;;6.78;5.78;;;;;;;11.10;85.86;102437.94;5085303;28;20111;-76
2023/05/31 01:55:23;;;;;;;8.45;6.50;;;;;;;11.03;86.28;102440.63;5071863;28;20159;-76
2023/05/31 01:58:10;;;;;;;10.52;6.70;;;;;;;11.04;86.67;102438.84;5084897;28;20805;-76
2023/05/31 02:00:58;;;;;;;8.50;6.43;;;;;;;11.02;86.86;102433.59;5058129;28;20053;-74
2023/05/31 02:03:44;;;;;;;8.75;6.40;;;;;;;10.99;87.07;102438.03;5062673;28;20055;-74
2023/05/31 02:06:30;;;;;;;7.63;6.28;;;;;;;10.96;87.25;102432.75;5085203;28;20053;-74
2023/05/31 02:09:15;;;;;;;8.13;6.65;;;;;;;10.95;87.22;102420.44;5067907;28;20135;-73
2023/05/31 02:12:00;;;;;;;9.32;6.32;;;;;;;10.95;87.46;102428.34;5086878;28;20513;-75
2023/05/31 02:14:45;;;;;;;9.80;6.50;;;;;;;10.97;87.63;102421.31;5080866;28;20092;-73
2023/05/31 02:17:32;;;;;;;8.63;6.90;;;;;;;10.96;87.80;102415.19;5088742;28;20172;-73
2023/05/31 02:20:19;;;;;;;9.60;7.07;;;;;;;10.94;88.03;102416.94;5077912;28;20057;-73
2023/05/31 02:23:04;;;;;;;7.68;6.60;;;;;;;10.91;88.14;102418.72;5085728;28;20052;-73
2023/05/31 02:25:50;;;;;;;8.93;6.68;;;;;;;10.90;88.37;102417.84;5073343;28;21037;-73
2023/05/31 02:28:36;;;;;;;7.28;6.30;;;;;;;10.88;88.43;102417.84;5084221;28;21138;-73
2023/05/31 02:31:21;;;;;;;9.77;7.03;;;;;;;10.90;88.51;102417.84;5077350;28;20638;-73
2023/05/31 02:34:06;;;;;;;9.07;7.47;;;;;;;10.87;88.68;102418.75;5088840;28;20056;-75
2023/05/31 02:36:52;;;;;;;9.00;7.07;;;;;;;10.84;89.02;102408.19;5087439;28;20056;-77
2023/05/31 02:39:37;;;;;;;10.15;7.00;;;;;;;10.81;89.10;102413.50;5090205;28;20049;-76
2023/05/31 02:42:23;;;;;;;11.68;7.40;;;;;;;10.81;89.41;102409.97;5088698;28;20056;-76
2023/05/31 02:45:10;;;;;;;10.45;7.63;;;;;;;10.81;89.52;102415.25;5074681;28;20493;-75
2023/05/31 02:47:55;;;;;;;10.52;7.93;;;;;;;10.79;89.70;102406.47;5070653;28;20513;-75
2023/05/31 02:50:41;;;;;;;10.05;7.50;;;;;;;10.80;89.70;102405.59;5072064;28;20532;-72
2023/05/31 02:53:40;;;;;;;11.60;7.32;;;;;;;10.78;89.93;102399.47;5082117;28;20064;-73
2023/05/31 02:56:30;;;;;;;12.27;7.97;;;;;;;10.75;90.27;102407.41;5088253;28;20064;-73
2023/05/31 02:59:30;;;;;;;10.15;8.13;;;;;;;10.72;90.20;102409.16;5059231;28;20095;-72
2023/05/31 03:02:22;;;;;;;12.30;8.05;;;;;;;10.72;90.51;102405.66;5084006;28;20044;-75
2023/05/31 03:05:28;;;;;;;10.23;8.27;;;;;;;10.74;90.48;102411.78;5088318;28;20691;-74
2023/05/31 03:08:14;;;;;;;10.25;7.95;;;;;;;10.70;90.55;102410.91;5073167;28;20045;-73
2023/05/31 03:10:59;;;;;;;12.02;7.75;;;;;;;10.68;90.73;102410.03;5073168;28;20557;-73
2023/05/31 03:13:45;;;;;;;11.55;8.52;;;;;;;10.68;91.03;102417.97;5089162;28;20060;-72
2023/05/31 03:16:31;;;;;;;13.38;9.10;;;;;;;10.66;91.12;102424.13;5072997;28;20049;-72
2023/05/31 03:19:16;;;;;;;10.77;8.57;;;;;;;10.66;91.08;102421.50;5062380;28;20574;-72
2023/05/31 03:22:06;;;;;;;12.45;8.82;;;;;;;10.63;91.29;102411.00;5068125;28;20061;-72
2023/05/31 03:24:51;;;;;;;11.35;9.25;;;;;;;10.67;91.28;102410.06;5086038;28;20106;-74
2023/05/31 03:27:36;;;;;;;12.82;9.10;;;;;;;10.74;90.57;102409.13;5073311;28;20052;-73
2023/05/31 03:30:22;;;;;;;13.93;9.43;;;;;;;10.75;91.03;102407.41;5088790;28;20097;-74
2023/05/31 03:33:14;;;;;;;11.05;8.18;;;;;;;10.78;90.80;102407.38;5059418;28;20060;-74
2023/05/31 03:36:00;;;;;;;13.38;9.38;;;;;;;10.78;90.83;102402.09;5073243;28;20048;-74
2023/05/31 03:38:46;;;;;;;12.27;9.15;;;;;;;10.78;90.67;102399.47;5086426;28;20135;-73
2023/05/31 03:41:34;;;;;;;11.30;8.60;;;;;;;10.78;90.62;102402.97;5073036;28;20158;-74
2023/05/31 03:44:20;;;;;;;14.15;9.57;;;;;;;10.78;90.60;102402.97;5065728;28;20323;-73
2023/05/31 03:47:06;;;;;;;14.50;9.48;;;;;;;10.80;90.66;102400.31;5071390;28;20060;-73
2023/05/31 03:49:52;;;;;;;13.13;9.38;;;;;;;10.81;90.70;102400.31;5089248;28;20048;-74
2023/05/31 03:52:38;;;;;;;12.05;9.10;;;;;;;10.80;90.71;102403.84;5072397;28;20048;-74
2023/05/31 03:55:25;;;;;;;14.38;9.63;;;;;;;10.83;90.63;102400.31;5085516;28;20056;-72
2023/05/31 03:58:10;;;;;;;14.10;9.98;;;;;;;10.84;90.53;102397.63;5081107;28;20588;-73
2023/05/31 04:00:58;;;;;;;15.05;9.82;;;;;;;10.87;90.65;102407.31;5058929;28;20136;-73
2023/05/31 04:03:46;;;;;;;18.10;10.15;;;;;;;10.93;90.29;102403.78;5062576;28;20053;-74
2023/05/31 04:06:31;;;;;;;16.33;10.30;;;;;;;10.96;90.00;102403.72;5086580;28;20069;-74
2023/05/31 04:09:17;;;;;;;15.35;9.77;;;;;;;11.02;89.90;102407.19;5085342;28;20049;-73
2023/05/31 04:12:03;;;;;;;13.82;10.18;;;;;;;11.10;89.72;102407.16;5073165;28;20044;-74
2023/05/31 04:14:48;;;;;;;14.95;10.10;;;;;;;11.17;89.38;102400.94;5073376;28;20107;-73
2023/05/31 04:17:34;;;;;;;14.60;9.32;;;;;;;11.22;88.99;102402.66;5073246;28;20827;-73
2023/05/31 04:20:19;;;;;;;12.32;9.15;;;;;;;11.25;88.90;102406.16;5077589;28;20061;-75
2023/05/31 04:23:07;;;;;;;12.77;9.48;;;;;;;11.27;88.92;102406.13;5069638;28;20045;-74
2023/05/31 04:25:52;;;;;;;12.50;8.82;;;;;;;11.29;88.86;102399.94;5071694;28;20053;-75
2023/05/31 04:28:37;;;;;;;14.93;9.75;;;;;;;11.37;88.30;102404.31;5086169;28;20049;-75
2023/05/31 04:31:24;;;;;;;16.02;9.50;;;;;;;11.42;88.44;102410.41;5067547;28;20061;-73
2023/05/31 04:34:23;;;;;;;15.05;10.23;;;;;;;11.49;88.06;102410.34;5072105;28;20049;-73
2023/05/31 04:37:10;;;;;;;15.38;11.25;;;;;;;11.55;87.63;102411.19;5064096;28;20044;-74
2023/05/31 04:39:57;;;;;;;13.48;9.45;;;;;;;11.63;87.73;102409.34;5074872;28;20580;-72
2023/05/31 04:42:42;;;;;;;12.68;9.60;;;;;;;11.79;87.22;102412.72;5062992;28;20061;-72
2023/05/31 04:45:40;;;;;;;14.30;9.93;;;;;;;12.14;85.61;102414.13;5087975;28;20976;-71
2023/05/31 04:48:27;;;;;;;13.75;9.88;;;;;;;13.77;80.32;102406.41;5080872;28;20049;-72
2023/05/31 04:51:18;;;;;;;15.35;9.07;;;;;;;14.28;75.78;102408.94;5064622;28;20057;-72
2023/05/31 04:54:04;;;;;;;14.45;9.10;;;;;;;13.49;78.07;102414.84;5074144;28;20084;-73
2023/05/31 04:56:50;;;;;;;14.32;9.85;;;;;;;12.97;79.91;102412.09;5089509;28;20186;-73
2023/05/31 04:59:35;;;;;;;13.35;9.68;;;;;;;12.80;81.30;102399.16;5076950;28;20092;-72
2023/05/31 05:02:21;;;;;;;12.73;8.70;;;;;;;13.06;81.08;102408.44;5074224;28;20052;-72
2023/05/31 05:05:08;;;;;;;12.60;8.63;;;;;;;12.97;80.59;102409.47;5071598;28;20053;-73
2023/05/31 05:07:53;;;;;;;13.05;9.27;;;;;;;12.92;81.15;102407.81;5069324;28;20061;-72
2023/05/31 05:10:41;;;;;;;14.98;9.50;;;;;;;13.24;79.96;102407.28;5077600;28;20049;-73
2023/05/31 05:13:27;;;;;;;14.65;9.18;;;;;;;13.36;79.65;102412.38;5081830;28;20056;-72
2023/05/31 05:16:12;;;;;;;14.00;9.55;;;;;;;13.88;78.19;102415.03;5070474;28;20056;-74
2023/05/31 05:18:57;;;;;;;12.70;8.82;;;;;;;15.17;73.39;102415.78;5078461;28;20048;-74
2023/05/31 05:21:47;;;;;;;14.00;8.52;;;;;;;15.87;69.41;102413.16;5068755;28;20061;-74
2023/05/31 05:24:33;;;;;;;14.18;8.85;;;;;;;15.07;71.17;102412.47;5069466;28;20059;-75
2023/05/31 05:27:21;;;;;;;13.95;8.68;;;;;;;16.14;69.66;102422.16;5067917;28;20135;-73
2023/05/31 05:30:07;;;;;;;11.48;8.23;;;;;;;18.40;61.77;102411.16;5059410;28;20044;-74
2023/05/31 05:32:53;;;;;;;13.40;8.30;;;;;;;19.74;56.39;102412.81;5076517;28;20504;-73
2023/05/31 05:35:39;;;;;;;13.60;7.70;;;;;;;20.88;53.02;102406.69;5060382;28;20060;-76
2023/05/31 05:38:24;;;;;;;12.32;7.75;;;;;;;21.76;49.93;102405.84;5060829;28;20123;-76
2023/05/31 05:41:12;;;;;;;12.27;7.25;;;;;;;22.44;48.16;102408.44;5074668;28;20064;-77
2023/05/31 05:43:59;;;;;;;12.38;7.55;;;;;;;23.13;46.00;102408.13;5066009;28;20052;-77
2023/05/31 05:46:45;;;;;;;13.45;7.93;;;;;;;23.34;44.14;102426.66;5058553;28;20061;-76
2023/05/31 05:49:33;;;;;;;9.35;6.55;;;;;;;23.38;43.92;102403.97;5053985;28;20052;-75
2023/05/31 05:52:19;;;;;;;11.45;7.50;;;;;;;23.79;43.33;102414.03;5062375;28;20055;-78
2023/05/31 05:55:04;;;;;;;15.43;7.47;;;;;;;23.90;42.54;102416.09;5077719;28;20432;-77
2023/05/31 05:57:51;;;;;;;10.52;5.45;;;;;;;24.01;41.75;102415.44;5058918;28;20057;-77
2023/05/31 06:01:18;;;;;;;9.85;7.32;;;;;;;23.56;42.76;102423.53;5019101;28;20915;-77
2023/05/31 06:04:05;;;;;;;11.05;7.10;;;;;;;23.88;41.79;102416.16;5058505;28;20061;-77
2023/05/31 06:06:50;;;;;;;11.85;7.38;;;;;;;24.22;41.35;102420.44;5060212;28;20111;-78
2023/05/31 06:09:36;;;;;;;11.07;6.97;;;;;;;24.38;40.78;102418.47;5069073;28;20148;-78
2023/05/31 06:12:22;;;;;;;9.30;7.13;;;;;;;23.76;41.61;102418.75;5080690;28;20053;-77
2023/05/31 06:15:08;;;;;;;11.25;6.72;;;;;;;21.21;46.30;102423.84;5058538;28;20056;-77
2023/05/31 06:17:54;;;;;;;14.13;7.68;;;;;;;18.94;51.91;102430.41;5085237;28;20053;-76
2023/05/31 06:20:39;;;;;;;14.00;7.65;;;;;;;17.75;56.61;102432.19;5079290;28;21406;-78
2023/05/31 06:23:24;;;;;;;12.45;7.38;;;;;;;17.00;59.78;102426.66;5068501;28;20607;-76
2023/05/31 06:26:10;;;;;;;12.57;7.47;;;;;;;16.45;61.93;102430.09;5051317;28;20068;-78
2023/05/31 06:29:00;;;;;;;13.73;7.88;;;;;;;16.08;63.42;102432.94;5051074;28;20053;-76
2023/05/31 06:32:04;;;;;;;16.05;7.80;;;;;;;15.79;64.62;102431.94;5067413;28;20970;-77
2023/05/31 06:34:54;;;;;;;13.57;7.75;;;;;;;15.68;65.63;102426.91;5070333;28;20524;-77
2023/05/31 06:37:39;;;;;;;10.68;7.80;;;;;;;15.58;66.47;102428.06;5080881;28;20139;-77
2023/05/31 06:40:25;;;;;;;12.93;7.35;;;;;;;15.53;66.60;102434.38;5069597;28;20044;-78
2023/05/31 06:43:10;;;;;;;13.25;8.35;;;;;;;15.53;66.61;102426.38;5069476;28;20064;-77
2023/05/31 06:46:28;;;;;;;14.50;8.20;;;;;;;15.53;66.94;102429.03;5070250;28;20825;-75
2023/05/31 06:49:33;;;;;;;;;;;;;;;15.52;67.24;102421.97;5081445;28;20082;-76
2023/05/31 06:52:33;;;;;;;14.52;8.15;;;;;;;15.55;68.05;102429.03;5051242;28;20026;-77
2023/05/31 06:55:37;;;;;;;14.40;7.30;;;;;;;15.66;66.78;102432.28;5076164;28;20967;-76
2023/05/31 06:58:31;;;;;;;11.50;7.93;;;;;;;15.69;67.17;102428.66;5073466;28;20254;-76
2023/05/31 07:01:16;;;;;;;13.13;7.97;;;;;;;15.80;66.70;102429.25;5074319;28;20052;-77
2023/05/31 07:04:02;;;;;;;12.52;7.68;;;;;;;15.84;67.22;102424.75;5079374;28;20053;-76
2023/05/31 07:06:48;;;;;;;14.95;7.70;;;;;;;15.98;66.90;102429.69;5069954;28;20065;-77
2023/05/31 07:09:34;;;;;;;13.20;7.80;;;;;;;16.11;66.44;102432.84;5088662;28;20052;-77
2023/05/31 07:12:20;;;;;;;15.93;7.60;;;;;;;16.17;66.22;102429.16;5072571;28;20176;-76
2023/05/31 07:15:07;;;;;;;11.15;7.35;;;;;;;16.27;65.77;102426.22;5086674;28;20048;-76
2023/05/31 07:17:52;;;;;;;15.10;7.20;;;;;;;16.40;65.71;102423.16;5075038;28;20087;-76
2023/05/31 07:20:38;;;;;;;12.98;7.88;;;;;;;16.57;65.33;102425.31;5073781;28;20075;-77
2023/05/31 07:23:24;;;;;;;11.43;7.88;;;;;;;16.73;64.44;102415.06;5089663;28;20139;-76
2023/05/31 07:26:10;;;;;;;15.13;7.15;;;;;;;16.77;64.61;102414.91;5085773;28;20382;-77
2023/05/31 07:28:55;;;;;;;12.68;7.75;;;;;;;16.94;64.45;102420.66;5069876;28;20067;-76
2023/05/31 07:31:40;;;;;;;15.52;7.70;;;;;;;17.08;63.75;102413.97;5083892;28;20048;-76
2023/05/31 07:34:26;;;;;;;15.85;7.22;;;;;;;17.21;63.81;102422.41;5089403;28;20532;-78
2023/05/31 07:37:11;;;;;;;12.20;7.13;;;;;;;17.34;63.35;102406.91;5085471;28;20056;-77
2023/05/31 07:39:56;;;;;;;13.32;6.70;;;;;;;17.47;62.13;102406.47;5069026;28;20067;-75
2023/05/31 07:42:43;;;;;;;12.20;6.70;;;;;;;17.52;62.51;102409.88;5074664;28;20091;-77
2023/05/31 07:45:29;;;;;;;14.25;7.00;;;;;;;17.60;61.62;102402.47;5087040;28;20163;-77
2023/05/31 07:48:14;;;;;;;11.18;6.88;;;;;;;17.71;60.92;102410.06;5084910;28;20060;-76
2023/05/31 07:50:59;;;;;;;12.50;7.25;;;;;;;17.70;61.51;102403.88;5089094;28;20052;-77
2023/05/31 07:53:44;;;;;;;12.55;7.03;;;;;;;17.85;60.19;102407.78;5087639;28;20082;-76
2023/05/31 07:56:31;;;;;;;13.55;7.18;;;;;;;17.97;60.87;102401.16;5089703;28;20151;-77
2023/05/31 07:59:16;;;;;;;10.43;5.80;;;;;;;18.11;59.76;102394.44;5089465;28;20100;-77
2023/05/31 08:02:04;;;;;;;11.50;6.05;;;;;;;18.26;58.98;102395.66;5089172;28;20597;-76
2023/05/31 08:04:49;;;;;;;12.05;5.88;;;;;;;18.33;59.10;102394.47;5088505;28;20061;-76
2023/05/31 08:07:35;;;;;;;9.70;6.15;;;;;;;18.44;58.86;102396.75;5086377;28;20052;-75
2023/05/31 08:10:20;;;;;;;13.10;6.38;;;;;;;18.52;58.55;102391.13;5088750;28;20068;-75
2023/05/31 08:13:05;;;;;;;10.25;6.10;;;;;;;18.71;58.03;102391.25;5089463;28;20527;-76
2023/05/31 08:15:52;;;;;;;12.50;6.20;;;;;;;18.87;57.58;102395.03;5088908;28;20053;-77
2023/05/31 08:18:37;;;;;;;11.65;6.13;;;;;;;18.95;58.14;102391.22;5089355;28;20521;-77
2023/05/31 08:21:22;;;;;;;11.40;5.47;;;;;;;19.19;56.06;102395.53;5088903;28;20048;-77
2023/05/31 08:24:08;;;;;;;11.65;5.40;;;;;;;19.31;55.84;102387.91;5088713;28;20135;-77
2023/05/31 08:26:53;;;;;;;9.93;5.30;;;;;;;19.40;56.20;102387.53;5089090;28;20053;-76
2023/05/31 08:29:38;;;;;;;9.65;5.38;;;;;;;19.60;55.42;102389.34;5088866;28;20592;-77
2023/05/31 08:32:25;;;;;;;14.45;5.93;;;;;;;19.72;54.59;102385.25;5088125;28;20568;-76
2023/05/31 08:35:11;;;;;;;14.25;5.60;;;;;;;19.78;55.17;102379.63;5088135;28;20096;-77
2023/05/31 08:37:57;;;;;;;10.70;5.55;;;;;;;20.04;53.55;102376.75;5082876;28;20049;-76
2023/05/31 08:40:43;;;;;;;10.38;4.95;;;;;;;20.11;52.58;102370.16;5078043;28;20169;-76
2023/05/31 08:43:30;;;;;;;11.57;5.78;;;;;;;20.08;53.05;102370.28;5085720;28;20064;-77
2023/05/31 08:46:15;;;;;;;10.35;5.03;;;;;;;20.35;51.96;102375.31;5088228;28;20048;-77
2023/05/31 08:49:08;;;;;;;10.38;5.13;;;;;;;20.35;52.53;102370.81;5088956;28;20056;-77
2023/05/31 08:51:56;;;;;;;73.35;7.47;;;;;;;20.40;53.38;102374.13;5104919;28;20120;-76
2023/05/31 08:54:43;;;;;;;10.63;4.70;;;;;;;20.60;52.71;102372.31;5085386;28;20113;-76
2023/05/31 08:57:31;;;;;;;9.50;4.63;;;;;;;20.73;51.67;102373.44;5085869;28;20044;-77
2023/05/31 09:00:19;;;;;;;7.22;4.25;;;;;;;20.84;50.31;102372.94;5086358;28;20061;-77
2023/05/31 09:03:09;;;;;;;6.95;4.03;;;;;;;20.89;50.48;102365.53;5081703;28;20053;-77
2023/05/31 09:05:56;;;;;;;9.60;3.95;;;;;;;21.08;48.51;102359.25;5086791;28;20060;-76
2023/05/31 09:08:41;;;;;;;49.60;6.70;;;;;;;21.15;49.50;102362.47;5078106;28;20122;-76
2023/05/31 09:11:27;;;;;;;8.30;4.18;;;;;;;21.37;49.14;102364.91;5082152;28;20189;-77
2023/05/31 09:14:12;;;;;;;10.65;4.85;;;;;;;21.44;47.92;102370.81;5080275;28;20052;-76
2023/05/31 09:16:58;;;;;;;12.10;5.13;;;;;;;21.47;48.36;102363.47;5084422;28;20048;-78
2023/05/31 09:19:55;;;;;;;8.98;4.90;;;;;;;21.56;49.25;102360.34;5086238;28;20060;-76
2023/05/31 09:22:41;;;;;;;11.10;5.30;;;;;;;21.83;48.03;102365.19;5083776;28;20052;-77
2023/05/31 09:25:26;;;;;;;12.50;6.25;;;;;;;21.93;47.57;102362.00;5087014;28;20853;-76
2023/05/31 09:28:12;;;;;;;9.40;4.35;;;;;;;22.03;46.61;102345.28;5084256;28;20056;-77
2023/05/31 09:31:06;;;;;;;7.43;3.72;;;;;;;22.19;46.26;102348.00;5087099;28;20056;-77
2023/05/31 09:33:54;;;;;;;12.52;6.15;;;;;;;22.23;45.50;102343.31;5086142;28;20052;-76
2023/05/31 09:36:42;;;;;;;11.20;5.05;;;;;;;22.11;46.22;102346.72;5086342;28;20056;-77
2023/05/31 09:39:28;;;;;;;11.98;5.15;;;;;;;22.08;45.97;102341.50;5086891;28;20471;-77
2023/05/31 09:42:14;;;;;;;9.35;4.63;;;;;;;22.16;45.96;102345.50;5084484;28;20167;-77
2023/05/31 09:44:59;;;;;;;8.25;4.60;;;;;;;22.21;45.50;102344.38;5085673;28;20060;-77
2023/05/31 09:47:46;;;;;;;9.50;4.63;;;;;;;22.24;45.46;102339.69;5080632;28;20087;-77
2023/05/31 09:50:31;;;;;;;11.02;4.63;;;;;;;22.29;45.15;102336.72;5085043;28;20103;-77
2023/05/31 09:53:17;;;;;;;10.43;4.50;;;;;;;22.39;44.75;102335.25;5083718;28;20048;-77
2023/05/31 09:56:16;;;;;;;8.50;4.60;;;;;;;22.37;45.12;102339.00;5083188;28;20049;-78
2023/05/31 09:59:03;;;;;;;10.50;4.15;;;;;;;22.40;45.90;102326.28;5071896;28;20052;-77
2023/05/31 10:01:50;;;;;;;8.55;5.28;;;;;;;22.62;44.98;102336.69;5076102;28;20055;-76
2023/05/31 10:04:37;;;;;;;10.18;4.35;;;;;;;22.75;44.61;102318.00;5081682;28;20147;-76
2023/05/31 10:07:24;;;;;;;8.30;3.75;;;;;;;22.94;43.76;102319.59;5086048;28;20053;-76
2023/05/31 10:10:10;;;;;;;12.50;4.38;;;;;;;23.19;42.36;102320.84;5085819;28;20155;-77
2023/05/31 10:13:04;;;;;;;8.52;3.85;;;;;;;23.05;42.84;102319.81;5086774;28;20107;-76
2023/05/31 10:15:55;;;;;;;7.47;3.25;;;;;;;23.10;42.54;102316.84;5085793;28;20099;-77
2023/05/31 10:18:46;;;;;;;9.73;3.50;;;;;;;23.16;43.26;102321.00;5084061;28;20056;-76
2023/05/31 10:21:40;;;;;;;8.55;4.55;;;;;;;23.35;42.94;102310.03;5069167;28;20049;-76
2023/05/31 10:24:49;;;;;;;7.70;2.80;;;;;;;23.57;41.34;102314.94;5084455;28;20061;-76
2023/05/31 10:27:41;;;;;;;8.15;2.95;;;;;;;23.57;40.47;102304.16;5080413;28;20049;-76
2023/05/31 10:30:34;;;;;;;5.88;2.90;;;;;;;23.71;41.21;102298.75;5086863;28;20556;-77
2023/05/31 10:33:22;;;;;;;6.38;3.05;;;;;;;23.91;40.35;102293.06;5091361;28;20889;-76
2023/05/31 10:36:08;;;;;;;5.82;2.88;;;;;;;24.03;40.12;102293.16;5088907;28;20060;-76
2023/05/31 10:39:18;;;;;;;6.00;2.53;;;;;;;24.28;38.52;102290.69;5088930;28;20119;-77
2023/05/31 10:42:29;;;;;;;7.57;2.85;;;;;;;24.10;39.74;102290.09;5086856;28;20068;-77
2023/05/31 10:45:48;;;;;;;6.90;2.33;;;;;;;24.25;39.90;102288.22;5078158;28;20053;-76
2023/05/31 10:48:57;;;;;;;7.35;3.13;;;;;;;24.56;38.27;102291.56;5088837;28;20056;-77
2023/05/31 10:51:45;;;;;;;4.80;2.10;;;;;;;24.47;37.59;102280.41;5090921;28;20061;-76
2023/05/31 10:54:32;;;;;;;7.85;2.53;;;;;;;24.35;37.63;102265.94;5084457;28;20092;-76
2023/05/31 10:57:18;;;;;;;7.43;2.40;;;;;;;24.35;37.40;102270.47;5088760;28;20060;-77
2023/05/31 11:00:06;;;;;;;7.50;2.53;;;;;;;24.43;37.11;102275.34;5087083;28;20057;-76
2023/05/31 11:02:58;;;;;;;7.47;2.17;;;;;;;24.38;37.71;102261.31;5078314;28;20143;-76
2023/05/31 11:06:08;;;;;;;7.47;2.38;;;;;;;24.56;36.59;102267.31;5088701;28;20056;-76
2023/05/31 11:09:11;;;;;;;4.65;1.80;;;;;;;24.56;37.27;102260.06;5090096;28;20099;-75
2023/05/31 11:11:56;;;;;;;4.95;1.77;;;;;;;24.91;35.83;102256.84;5085991;28;20052;-76
2023/05/31 11:15:00;;;;;;;8.68;2.03;;;;;;;24.70;35.45;102258.31;5088626;28;20044;-77
2023/05/31 11:17:54;;;;;;;6.38;2.08;;;;;;;24.66;35.12;102255.78;5084476;28;20045;-77
2023/05/31 11:20:40;;;;;;;5.50;2.17;;;;;;;24.53;35.72;102254.88;5088670;28;20052;-78
2023/05/31 11:23:30;;;;;;;3.67;1.90;;;;;;;24.58;36.00;102243.78;5069103;28;20509;-76
2023/05/31 11:26:18;;;;;;;8.57;2.03;;;;;;;24.88;35.39;102258.88;5069382;28;20675;-77
2023/05/31 11:29:03;;;;;;;5.85;2.20;;;;;;;24.92;34.93;102247.78;5087233;28;20057;-76
2023/05/31 11:31:54;;;;;;;5.03;1.95;;;;;;;24.86;35.30;102248.19;5088619;28;20817;-76
2023/05/31 11:34:58;;;;;;;5.30;1.90;;;;;;;24.97;35.50;102244.78;5079137;28;20052;-76
2023/05/31 11:37:43;;;;;;;6.03;2.20;;;;;;;25.16;35.03;102246.16;5086802;28;20053;-76
2023/05/31 11:40:32;;;;;;;4.90;1.75;;;;;;;25.10;35.61;102252.84;5073414;28;20053;-76
2023/05/31 11:43:25;;;;;;;4.15;2.08;;;;;;;25.12;35.47;102246.38;5087118;28;20056;-77
2023/05/31 11:46:11;;;;;;;7.82;2.35;;;;;;;25.02;35.52;102236.34;5089114;28;20882;-77
2023/05/31 11:48:57;;;;;;;5.05;1.80;;;;;;;25.24;35.11;102238.38;5089817;28;20130;-77
2023/05/31 11:51:44;;;;;;;7.00;2.38;;;;;;;25.32;35.65;102240.56;5087284;28;20044;-76
2023/05/31 11:54:32;;;;;;;8.93;2.58;;;;;;;25.31;35.04;102228.88;5085154;28;20060;-76
2023/05/31 11:57:19;;;;;;;7.40;2.20;;;;;;;25.23;35.36;102236.66;5087611;28;20048;-77
2023/05/31 12:00:10;;;;;;;5.50;2.42;;;;;;;25.23;35.42;102228.56;5088686;28;20143;-76
2023/05/31 12:02:56;;;;;;;6.10;2.17;;;;;;;25.25;35.60;102222.09;5079702;28;20049;-77
2023/05/31 12:05:51;;;;;;;6.13;2.10;;;;;;;25.31;35.13;102226.19;5069331;28;20060;-77
2023/05/31 12:08:36;;;;;;;5.25;2.22;;;;;;;25.27;35.10;102208.50;5088052;28;20100;-76
2023/05/31 12:11:21;;;;;;;6.63;2.50;;;;;;;25.30;35.75;102205.56;5089091;28;20699;-76
2023/05/31 12:14:07;;;;;;;5.60;2.40;;;;;;;25.51;35.39;102211.28;5089272;28;20052;-77
2023/05/31 12:16:53;;;;;;;6.32;2.13;;;;;;;25.62;34.78;102205.09;5089143;28;20056;-77
2023/05/31 12:19:39;;;;;;;7.55;2.60;;;;;;;25.67;34.13;102210.16;5085976;28;20847;-76
2023/05/31 12:22:25;;;;;;;6.38;2.00;;;;;;;25.61;35.05;102203.38;5086365;28;20114;-77
2023/05/31 12:25:10;;;;;;;6.07;2.20;;;;;;;25.58;34.62;102200.91;5088083;28;20048;-75
2023/05/31 12:27:56;;;;;;;6.85;2.60;;;;;;;25.41;35.31;102202.97;5087575;28;20515;-77
2023/05/31 12:30:44;;;;;;;8.30;2.75;;;;;;;25.46;35.50;102201.81;5082195;28;20056;-75
2023/05/31 12:33:58;;;;;;;7.45;2.45;;;;;;;25.48;35.98;102176.41;5084282;28;20060;-76
2023/05/31 12:36:47;;;;;;;5.18;1.95;;;;;;;25.85;34.50;102187.19;5085014;28;20167;-74
2023/05/31 12:39:33;;;;;;;5.50;2.33;;;;;;;25.83;35.45;102183.78;5066352;28;20499;-73
2023/05/31 12:42:19;;;;;;;5.65;2.38;;;;;;;26.00;35.26;102181.63;5087244;28;20060;-76
2023/05/31 12:45:09;;;;;;;10.80;2.80;;;;;;;26.06;35.01;102178.44;5085279;28;20607;-75
2023/05/31 12:47:58;;;;;;;6.38;2.42;;;;;;;26.12;34.62;102171.75;5068169;28;20041;-75
2023/05/31 12:50:47;;;;;;;4.82;2.28;;;;;;;26.18;34.03;102185.66;5086783;28;20135;-75
2023/05/31 12:53:37;;;;;;;7.15;2.50;;;;;;;25.95;34.42;102164.88;5084688;28;20036;-77
2023/05/31 12:56:23;;;;;;;6.22;2.13;;;;;;;25.98;34.81;102170.06;5084969;28;20774;-76
2023/05/31 12:59:08;;;;;;;6.00;2.08;;;;;;;25.83;35.27;102162.16;5082657;28;20061;-77
2023/05/31 13:01:55;;;;;;;5.78;2.20;;;;;;;26.03;33.94;102166.03;5080134;28;20053;-75